Time;durP1;ratioP1;P1;durP2;ratioP2;P2;SDS_P1;SDS_P2;PMS_P1;PMS_P2;Temp;Humidity;BMP_temperature;BMP_pressure;BME280_temperature;BME280_humidity;BME280_pressure;Samples;Min_cycle;Max_cycle;Signal;HPM_P1;HPM_P2
2022/08/25 00:01:23;;;;;;;13.58;6.00;;;;;;;22.82;100.00;101137.88;5125030;57;1143426;-67
2022/08/25 00:06:29;;;;;;;12.65;6.00;;;;;;;22.66;100.00;101126.20;5084105;57;1143192;-67
2022/08/25 00:11:37;;;;;;;15.65;5.80;;;;;;;22.62;100.00;101124.04;5127727;57;1143173;-65
2022/08/25 00:16:44;;;;;;;15.08;5.50;;;;;;;22.61;100.00;101112.42;5126887;57;1143087;-67
2022/08/25 00:21:50;;;;;;;15.68;6.90;;;;;;;22.49;100.00;101104.45;5125817;57;1143321;-67
2022/08/25 00:27:00;;;;;;;24.60;6.60;;;;;;;22.48;100.00;101097.89;5125727;57;1143190;-67
2022/08/25 00:32:07;;;;;;;11.25;5.10;;;;;;;22.47;100.00;101101.09;5125827;57;1143455;-64
2022/08/25 00:37:14;;;;;;;13.40;5.90;;;;;;;22.41;100.00;101105.38;5080185;57;1143324;-67
2022/08/25 00:42:20;;;;;;;15.78;5.55;;;;;;;22.39;100.00;101127.63;5140063;57;1143308;-67
2022/08/25 00:47:26;;;;;;;19.17;5.83;;;;;;;22.40;100.00;101123.07;5180619;57;1143556;-66
2022/08/25 00:52:54;;;;;;;19.75;6.75;;;;;;;22.39;100.00;101131.66;5180613;57;1143173;-67
2022/08/25 00:58:13;;;;;;;12.07;5.40;;;;;;;22.35;100.00;101124.11;5180786;57;1143224;-65
2022/08/25 01:03:20;;;;;;;15.55;5.97;;;;;;;22.31;100.00;101116.89;5096114;57;1143198;-66
2022/08/25 01:08:31;;;;;;;15.13;5.95;;;;;;;22.33;100.00;101127.50;5204848;56;1143553;-67
2022/08/25 01:13:44;;;;;;;10.30;6.60;;;;;;;22.33;100.00;101128.84;5227244;56;1143514;-65
2022/08/25 01:18:56;;;;;;;10.68;6.17;;;;;;;22.24;100.00;101144.25;5227240;56;1143129;-68
2022/08/25 01:24:03;;;;;;;15.48;5.35;;;;;;;22.14;100.00;101161.68;5227126;56;1143038;-68
2022/08/25 01:29:24;;;;;;;17.10;6.30;;;;;;;22.02;100.00;101159.88;5187317;56;1143356;-65
2022/08/25 01:34:33;;;;;;;22.05;6.37;;;;;;;21.96;100.00;101157.38;5227286;56;1141332;-65
2022/08/25 01:39:39;;;;;;;20.90;6.75;;;;;;;21.94;100.00;101155.87;5226861;56;1140994;-68
2022/08/25 01:44:47;;;;;;;9.30;7.10;;;;;;;21.95;100.00;101149.47;5227010;56;1141097;-67
2022/08/25 01:49:52;;;;;;;19.87;6.90;;;;;;;21.95;100.00;101146.77;5227241;56;1139107;-66
2022/08/25 01:54:58;;;;;;;15.25;7.03;;;;;;;21.93;100.00;101150.15;5227139;56;1141038;-65
2022/08/25 02:00:09;;;;;;;14.70;7.28;;;;;;;21.96;100.00;101143.06;5227467;56;1141077;-67
2022/08/25 02:05:18;;;;;;;19.17;8.10;;;;;;;21.96;100.00;101145.25;5192589;56;1141273;-65
2022/08/25 02:10:24;;;;;;;14.35;7.33;;;;;;;21.91;100.00;101145.44;5107499;57;1141015;-65
2022/08/25 02:15:30;;;;;;;21.77;8.00;;;;;;;21.88;100.00;101147.98;5111847;57;1141137;-64
2022/08/25 02:20:37;;;;;;;18.12;8.45;;;;;;;21.84;100.00;101145.84;5180465;57;1141287;-67
2022/08/25 02:25:43;;;;;;;22.62;8.35;;;;;;;21.81;100.00;101140.30;5180629;57;1141280;-68
2022/08/25 02:30:51;;;;;;;15.30;7.22;;;;;;;21.81;100.00;101140.30;5180305;56;1141308;-67
2022/08/25 02:36:01;;;;;;;13.28;6.80;;;;;;;21.89;100.00;101141.58;5136397;57;1141145;-66
2022/08/25 02:41:22;;;;;;;23.73;7.22;;;;;;;21.93;100.00;101130.79;5180177;57;1141181;-67
2022/08/25 02:46:29;;;;;;;17.43;7.33;;;;;;;22.00;100.00;101128.23;5180512;57;1149279;-66
2022/08/25 02:51:36;;;;;;;17.40;7.60;;;;;;;22.04;100.00;101124.17;5180738;57;1143423;-66
2022/08/25 02:56:43;;;;;;;18.87;7.78;;;;;;;22.07;100.00;101122.48;5180204;57;1143433;-67
2022/08/25 03:01:48;;;;;;;21.55;7.70;;;;;;;22.03;100.00;101123.84;5140991;57;1143108;-64
2022/08/25 03:06:54;;;;;;;28.35;7.83;;;;;;;21.98;100.00;101112.75;5119881;57;1143135;-64
2022/08/25 03:12:00;;;;;;;21.97;6.80;;;;;;;21.94;100.00;101118.16;5134997;56;1143022;-67
2022/08/25 03:17:10;;;;;;;13.55;6.30;;;;;;;21.89;100.00;101116.50;5137603;57;1143114;-66
2022/08/25 03:22:16;;;;;;;11.30;5.67;;;;;;;21.84;100.00;101110.33;5129757;56;1143145;-65
2022/08/25 03:27:22;;;;;;;26.20;6.87;;;;;;;21.76;100.00;101107.66;5169968;56;1143144;-64
2022/08/25 03:32:29;;;;;;;17.45;7.65;;;;;;;21.67;100.00;101109.58;5152649;56;1143186;-67
2022/08/25 03:37:36;;;;;;;17.23;7.20;;;;;;;21.65;100.00;101116.14;5190828;56;1143255;-66
2022/08/25 03:42:44;;;;;;;12.63;6.72;;;;;;;21.64;100.00;101114.47;5171254;56;1143200;-67
2022/08/25 03:47:52;;;;;;;24.80;6.92;;;;;;;21.65;100.00;101110.77;5176461;56;1143045;-67
2022/08/25 03:52:58;;;;;;;21.33;6.97;;;;;;;21.58;100.00;101112.47;5173972;56;1143354;-65
2022/08/25 03:58:04;;;;;;;12.05;6.80;;;;;;;21.56;100.00;101122.56;5154580;56;1143246;-66
2022/08/25 04:03:11;;;;;;;20.43;7.67;;;;;;;21.60;100.00;101122.55;5085253;57;1143192;-67
2022/08/25 04:08:18;;;;;;;15.35;7.55;;;;;;;21.56;100.00;101124.75;5213725;56;1143182;-64
2022/08/25 04:13:23;;;;;;;16.10;8.48;;;;;;;21.52;100.00;101120.76;5195836;56;1143216;-66
2022/08/25 04:18:30;;;;;;;16.42;8.75;;;;;;;21.50;100.00;101121.94;5149699;56;1143363;-65
2022/08/25 04:23:40;;;;;;;23.22;9.03;;;;;;;21.45;100.00;101128.34;5139485;56;1143130;-64
2022/08/25 04:28:47;;;;;;;19.30;8.08;;;;;;;21.44;100.00;101129.36;5140586;57;1143562;-65
2022/08/25 04:33:53;;;;;;;20.77;9.10;;;;;;;21.40;100.00;101135.08;5140804;57;1143397;-65
2022/08/25 04:38:59;;;;;;;22.62;9.55;;;;;;;21.36;100.00;101125.70;5140952;57;1143682;-63
2022/08/25 04:44:06;;;;;;;19.10;8.33;;;;;;;21.36;100.00;101129.73;5086783;57;1143307;-67
2022/08/25 04:49:12;;;;;;;20.77;7.05;;;;;;;21.39;100.00;101126.67;5057772;58;1143445;-67
2022/08/25 04:54:22;;;;;;;24.45;9.68;;;;;;;21.45;100.00;101128.34;5057532;58;1143057;-66
2022/08/25 04:59:28;;;;;;;22.82;7.75;;;;;;;21.41;100.00;101131.89;5104586;56;1143110;-65
2022/08/25 05:04:36;;;;;;;19.62;8.82;;;;;;;21.47;100.00;101127.67;5128798;56;1143115;-67
2022/08/25 05:09:42;;;;;;;13.45;9.00;;;;;;;21.45;100.00;101127.84;5115582;57;1143164;-67
2022/08/25 05:14:50;;;;;;;22.32;9.53;;;;;;;21.47;100.00;101124.98;5206872;56;1143152;-66
2022/08/25 05:19:56;;;;;;;19.73;9.60;;;;;;;21.54;100.00;101130.01;5214161;56;1143393;-67
2022/08/25 05:25:02;;;;;;;21.90;8.98;;;;;;;21.58;100.00;101132.66;5133668;56;1143126;-67
2022/08/25 05:30:10;;;;;;;27.58;10.18;;;;;;;21.58;100.00;101135.34;5203325;56;1143109;-65
2022/08/25 05:35:18;;;;;;;30.37;8.75;;;;;;;21.64;100.00;101140.05;5028065;58;1143355;-66
2022/08/25 05:40:24;;;;;;;17.80;8.33;;;;;;;21.72;100.00;101138.13;5210831;56;1141322;-67
2022/08/25 05:45:30;;;;;;;19.17;8.63;;;;;;;21.75;100.00;101132.91;5147048;56;1141184;-65
2022/08/25 05:50:36;;;;;;;16.00;8.88;;;;;;;21.78;100.00;101132.56;5143452;56;1141086;-65
2022/08/25 05:55:45;;;;;;;21.73;9.35;;;;;;;21.86;100.00;101123.08;5172983;56;1141003;-65
2022/08/25 06:00:51;;;;;;;17.82;8.90;;;;;;;21.98;100.00;101123.53;5155436;56;1141036;-67
2022/08/25 06:06:06;;;;;;;16.52;8.73;;;;;;;22.10;100.00;101119.43;5161213;56;1141091;-67
2022/08/25 06:11:15;;;;;;;16.10;8.48;;;;;;;22.08;100.00;101129.03;5128245;56;1141410;-66
2022/08/25 06:16:21;;;;;;;17.30;9.33;;;;;;;22.11;100.00;101126.50;5158100;56;1141362;-65
2022/08/25 06:21:26;;;;;;;20.08;9.53;;;;;;;22.11;100.00;101126.50;5213062;56;1141320;-68
2022/08/25 06:26:32;;;;;;;25.45;8.95;;;;;;;22.28;100.00;101133.45;5149212;56;1141065;-68
2022/08/25 06:31:38;;;;;;;18.52;9.03;;;;;;;22.40;100.00;101140.08;5119594;56;1141329;-67
2022/08/25 06:36:44;;;;;;;27.30;10.58;;;;;;;22.46;100.00;101141.20;5163245;56;1141325;-66
2022/08/25 06:41:55;;;;;;;22.45;10.78;;;;;;;22.49;100.00;101146.73;5182983;56;1143380;-66
2022/08/25 06:47:03;;;;;;;23.27;9.43;;;;;;;22.38;100.00;101145.31;5166126;56;1140808;-66
2022/08/25 06:52:09;;;;;;;19.17;10.23;;;;;;;22.51;100.00;101144.20;5171362;56;21163;-65
2022/08/25 06:57:15;;;;;;;22.07;7.65;;;;;;;22.70;100.00;101138.81;5155638;56;1140999;-65
2022/08/25 07:02:21;;;;;;;20.95;8.75;;;;;;;22.79;100.00;101150.70;5172177;56;1143369;-65
2022/08/25 07:07:27;;;;;;;15.47;7.20;;;;;;;23.01;100.00;101141.41;5173643;56;1143231;-68
2022/08/25 07:12:33;;;;;;;17.40;6.93;;;;;;;23.40;100.00;101141.95;5168868;56;1143115;-65
2022/08/25 07:17:39;;;;;;;25.52;7.67;;;;;;;23.71;100.00;101140.91;5198389;56;1143169;-65
2022/08/25 07:22:45;;;;;;;12.93;6.40;;;;;;;23.80;100.00;101141.14;5211314;56;1143113;-66
2022/08/25 07:27:50;;;;;;;19.07;5.75;;;;;;;23.88;100.00;101136.96;5170086;56;1143223;-68
2022/08/25 07:32:56;;;;;;;19.95;6.47;;;;;;;23.79;100.00;101143.52;5194742;56;1143267;-65
2022/08/25 07:38:03;;;;;;;16.87;8.45;;;;;;;23.76;100.00;101142.03;5212634;56;1143169;-68
2022/08/25 07:43:09;;;;;;;22.77;7.08;;;;;;;24.01;100.00;101143.86;5211496;56;1143179;-66
2022/08/25 07:48:18;;;;;;;17.75;6.37;;;;;;;24.17;100.00;101134.67;5168444;57;1143164;-68
2022/08/25 07:53:24;;;;;;;19.32;6.28;;;;;;;24.16;100.00;101127.58;5163041;56;1143176;-67
2022/08/25 07:58:30;;;;;;;16.40;6.50;;;;;;;24.44;100.00;101132.56;5155697;56;1143161;-68
2022/08/25 08:03:36;;;;;;;24.82;8.08;;;;;;;24.74;100.00;101144.59;5178795;56;1143125;-65
2022/08/25 08:08:47;;;;;;;16.90;7.15;;;;;;;24.81;100.00;101146.30;5193897;56;1143074;-66
2022/08/25 08:13:55;;;;;;;16.20;6.57;;;;;;;24.92;100.00;101146.26;5213827;56;1143406;-67
2022/08/25 08:19:01;;;;;;;11.68;7.40;;;;;;;24.89;100.00;101145.33;5212538;56;1143154;-68
2022/08/25 08:24:08;;;;;;;19.40;6.15;;;;;;;24.97;100.00;101139.78;5202655;56;1143292;-65
2022/08/25 08:29:15;;;;;;;21.85;7.20;;;;;;;25.23;100.00;101140.45;5135632;56;1143286;-66
2022/08/25 08:34:22;;;;;;;24.80;6.15;;;;;;;25.65;100.00;101135.91;5183724;56;1143350;-66
2022/08/25 08:39:29;;;;;;;20.48;6.90;;;;;;;25.95;97.76;101137.78;5191474;56;1143134;-67
2022/08/25 08:44:49;;;;;;;20.15;6.53;;;;;;;26.11;96.93;101138.23;5189876;56;1141296;-66
2022/08/25 08:50:23;;;;;;;20.97;5.85;;;;;;;26.24;97.27;101132.83;5161287;56;1141069;-68
2022/08/25 08:55:34;;;;;;;21.68;6.58;;;;;;;26.51;97.07;101135.07;4920534;59;1141142;-68
2022/08/25 09:00:53;;;;;;;22.27;7.03;;;;;;;26.62;93.65;101133.59;4938726;59;1141108;-65
2022/08/25 09:06:09;;;;;;;23.32;5.95;;;;;;;26.67;92.92;101129.74;4930444;59;1139193;-65
2022/08/25 09:11:22;;;;;;;34.20;6.97;;;;;;;26.65;92.65;101125.05;4936574;59;1138967;-68
2022/08/25 09:16:56;;;;;;;29.52;6.03;;;;;;;26.82;92.99;101112.72;4959588;58;1139225;-67
2022/08/25 09:22:33;;;;;;;22.62;6.37;;;;;;;27.00;92.34;101103.11;5136124;57;1138997;-67
2022/08/25 09:27:46;;;;;;;27.05;6.17;;;;;;;27.15;92.95;101114.05;5130434;57;1137028;-68
2022/08/25 09:33:05;;;;;;;25.57;6.00;;;;;;;27.15;89.01;101106.42;5068011;57;1141273;-67
2022/08/25 09:38:05;;;;;;;16.85;5.70;;;;;;;27.35;92.77;101103.09;5143082;57;1141064;-66
2022/08/25 09:43:30;;;;;;;25.02;5.45;;;;;;;27.54;91.46;101101.34;5128034;57;1141026;-68
2022/08/25 09:48:47;;;;;;;18.42;5.28;;;;;;;27.80;90.86;101106.70;4976846;59;1141213;-68
2022/08/25 09:54:16;;;;;;;27.05;5.92;;;;;;;28.01;88.15;101103.62;5117805;57;1141052;-67
2022/08/25 09:59:35;;;;;;;24.23;5.92;;;;;;;28.10;86.76;101103.38;5064610;57;1141318;-66
2022/08/25 10:04:41;;;;;;;16.60;5.53;;;;;;;28.12;84.33;101088.48;5130594;57;1141018;-68
2022/08/25 10:09:56;;;;;;;28.45;5.78;;;;;;;28.15;84.18;101077.69;5050700;58;1141342;-66
2022/08/25 10:15:05;;;;;;;17.65;6.12;;;;;;;28.09;83.32;101075.34;5161853;56;1141190;-69
2022/08/25 10:20:19;;;;;;;16.67;5.17;;;;;;;28.10;82.99;101060.69;5055526;57;1141094;-68
2022/08/25 10:25:31;;;;;;;22.10;6.20;;;;;;;28.10;81.87;101058.50;5040091;57;1141168;-66
2022/08/25 10:31:00;;;;;;;20.62;6.25;;;;;;;28.06;84.13;101059.45;5059445;57;1141096;-67
2022/08/25 10:36:47;;;;;;;23.75;6.95;;;;;;;28.20;84.46;101054.78;5130157;56;1141040;-66
2022/08/25 10:42:21;;;;;;;32.35;6.03;;;;;;;28.31;83.81;101044.53;5165405;56;1139066;-68
2022/08/25 10:47:56;;;;;;;25.23;5.95;;;;;;;28.40;83.50;101043.20;5122242;56;1139026;-67
2022/08/25 10:53:25;;;;;;;21.55;6.12;;;;;;;28.52;82.23;101040.58;5134858;56;1141046;-67
2022/08/25 10:58:38;;;;;;;17.57;5.22;;;;;;;28.59;83.32;101033.16;5172072;56;1141015;-67
2022/08/25 11:03:51;;;;;;;29.15;5.30;;;;;;;28.68;80.89;101024.50;5202527;56;1141103;-67
2022/08/25 11:09:03;;;;;;;27.52;5.62;;;;;;;28.86;82.18;101022.35;5151050;56;1140929;-67
2022/08/25 11:14:11;;;;;;;;;;;;;;;28.97;81.77;101018.03;5119550;57;1141170;-68
2022/08/25 11:19:44;;;;;;;48.90;6.97;;;;;;;29.13;82.11;101011.96;5227869;56;976300;-68
2022/08/25 11:25:06;;;;;;;27.40;5.85;;;;;;;29.22;82.85;101008.38;5194190;56;1139007;-67
2022/08/25 11:30:16;;;;;;;22.70;4.95;;;;;;;29.36;81.80;101002.52;5150758;56;1141196;-69
2022/08/25 11:35:41;;;;;;;24.70;6.13;;;;;;;29.53;80.99;101005.98;5226790;56;1140908;-68
2022/08/25 11:41:26;;;;;;;25.77;5.25;;;;;;;29.62;80.30;101001.36;5217452;56;1141006;-65
2022/08/25 11:47:02;;;;;;;30.15;5.50;;;;;;;29.67;80.28;100995.19;5157134;56;1139081;-67
2022/08/25 11:52:34;;;;;;;23.18;4.95;;;;;;;29.72;79.01;100999.42;5176607;56;1139310;-66
2022/08/25 11:57:42;;;;;;;27.07;5.75;;;;;;;29.77;76.22;100987.29;5226938;56;1139047;-69
2022/08/25 12:02:50;;;;;;;17.85;4.50;;;;;;;29.64;76.30;100989.66;5226655;56;1138971;-67
2022/08/25 12:13:50;;;;;;;26.43;5.50;;;;;;;29.79;75.00;100991.95;5228963;56;1141031;-69
2022/08/25 12:19:17;;;;;;;22.05;5.28;;;;;;;29.83;76.49;100987.70;5226088;56;1141073;-68
2022/08/25 12:24:46;;;;;;;31.12;5.42;;;;;;;29.95;77.02;100983.62;5226215;56;1141071;-67
2022/08/25 12:30:04;;;;;;;21.07;5.95;;;;;;;30.11;76.68;100975.30;5224378;56;1141100;-67
2022/08/25 12:35:18;;;;;;;31.82;5.35;;;;;;;30.15;76.69;100972.41;5225358;56;1141275;-69
2022/08/25 12:40:44;;;;;;;42.27;6.90;;;;;;;30.23;75.95;100958.42;5225616;56;1141086;-68
2022/08/25 12:45:53;;;;;;;28.40;6.30;;;;;;;30.29;75.50;100954.73;5225488;56;1141217;-66
2022/08/25 12:51:19;;;;;;;34.03;5.65;;;;;;;30.42;75.21;100950.38;5225368;56;1141059;-68
2022/08/25 12:56:44;;;;;;;21.87;5.47;;;;;;;30.55;76.80;100955.64;5226332;56;1141053;-68
2022/08/25 13:02:20;;;;;;;28.62;5.90;;;;;;;30.61;75.30;100952.47;5227562;56;1139111;-67
2022/08/25 13:07:51;;;;;;;18.55;5.67;;;;;;;30.56;74.27;100939.52;5227439;56;1139011;-69
2022/08/25 13:13:22;;;;;;;33.40;6.08;;;;;;;30.73;74.37;100938.24;5227608;56;1139343;-67
2022/08/25 13:18:33;;;;;;;17.65;5.15;;;;;;;30.75;73.67;100940.20;5251438;56;1141042;-69
2022/08/25 13:23:42;;;;;;;24.00;5.50;;;;;;;30.70;73.67;100933.30;5250651;56;1140939;-67
2022/08/25 13:28:58;;;;;;;27.13;6.17;;;;;;;30.74;73.90;100930.34;5190174;56;1141052;-67
2022/08/25 13:34:08;;;;;;;25.20;5.53;;;;;;;30.84;73.56;100923.75;5147982;57;1141076;-66
2022/08/25 13:39:18;;;;;;;34.18;7.10;;;;;;;30.83;72.36;100922.63;5142960;57;1141187;-68
2022/08/25 13:44:26;;;;;;;23.15;5.25;;;;;;;30.93;73.09;100925.55;5135604;57;1141298;-66
2022/08/25 13:49:32;;;;;;;41.55;6.28;;;;;;;30.92;72.46;100917.05;5129071;57;1141070;-69
2022/08/25 13:54:44;;;;;;;19.12;5.22;;;;;;;30.95;73.75;100915.20;5136171;57;1141060;-66
2022/08/25 13:59:54;;;;;;;53.75;7.08;;;;;;;31.00;73.18;100907.95;5147203;57;1141020;-66
2022/08/25 14:04:59;;;;;;;29.98;5.83;;;;;;;31.05;72.70;100909.39;5037200;58;1141127;-66
2022/08/25 14:10:13;;;;;;;24.05;6.33;;;;;;;30.89;72.66;100896.51;5064314;58;1141082;-70
2022/08/25 14:15:24;;;;;;;21.05;5.50;;;;;;;30.81;73.03;100898.28;5076313;57;1141182;-70
2022/08/25 14:20:32;;;;;;;28.85;6.58;;;;;;;30.95;73.67;100893.35;5209488;56;1141071;-69
2022/08/25 14:25:39;;;;;;;31.85;5.97;;;;;;;30.99;71.64;100894.53;5227026;56;1141023;-69
2022/08/25 14:30:50;;;;;;;24.47;5.22;;;;;;;30.85;71.82;100891.80;5227810;56;1141183;-68
2022/08/25 14:36:01;;;;;;;28.85;6.78;;;;;;;30.85;72.82;100887.70;5228350;56;1141100;-69
2022/08/25 14:41:07;;;;;;;27.75;5.90;;;;;;;30.81;70.52;100883.80;5228381;56;1141091;-70
2022/08/25 14:46:23;;;;;;;27.77;6.17;;;;;;;30.84;71.73;100880.05;5141004;57;1141094;-70
2022/08/25 14:51:31;;;;;;;34.53;6.60;;;;;;;30.90;71.36;100873.59;5194185;56;1141053;-69
2022/08/25 14:56:37;;;;;;;23.70;5.72;;;;;;;30.95;70.06;100862.77;5227024;56;1141313;-69
2022/08/25 15:01:43;;;;;;;35.03;6.62;;;;;;;31.03;70.79;100863.72;5227116;56;1141340;-66
2022/08/25 15:06:53;;;;;;;29.52;6.95;;;;;;;31.06;69.75;100861.04;5227245;56;1141177;-68
2022/08/25 15:11:59;;;;;;;22.23;4.83;;;;;;;31.08;69.83;100856.99;5227457;56;1141109;-67
2022/08/25 15:17:05;;;;;;;38.05;5.92;;;;;;;31.08;70.28;100847.97;5171921;56;1141138;-69
2022/08/25 15:22:11;;;;;;;31.30;6.37;;;;;;;31.08;69.68;100835.13;5129516;57;1141060;-69
2022/08/25 15:27:19;;;;;;;36.83;6.78;;;;;;;31.10;69.01;100832.19;5083818;57;1138978;-67
2022/08/25 15:32:25;;;;;;;32.10;7.15;;;;;;;31.05;67.47;100830.16;5065244;57;1139053;-69
2022/08/25 15:37:31;;;;;;;32.25;6.58;;;;;;;31.04;69.07;100826.30;5065143;58;1139119;-66
2022/08/25 15:42:38;;;;;;;43.23;8.30;;;;;;;31.02;68.64;100823.81;5063916;57;1139245;-67
2022/08/25 15:47:43;;;;;;;30.15;7.03;;;;;;;30.99;69.14;100821.59;5102505;56;1138928;-66
2022/08/25 15:52:50;;;;;;;39.33;7.62;;;;;;;30.94;68.14;100822.03;5103437;56;1139009;-66
2022/08/25 15:57:55;;;;;;;28.27;6.85;;;;;;;30.93;69.53;100811.64;5098485;57;1138880;-67
2022/08/25 16:03:02;;;;;;;33.28;6.08;;;;;;;31.01;69.88;100803.59;5098713;57;1138977;-67
2022/08/25 16:08:09;;;;;;;38.08;6.25;;;;;;;31.00;69.45;100801.41;5119650;56;1138963;-69
2022/08/25 16:13:15;;;;;;;31.48;6.22;;;;;;;30.97;69.31;100792.86;5146885;57;1139137;-67
2022/08/25 16:18:21;;;;;;;29.75;5.58;;;;;;;30.92;69.73;100792.23;5137634;56;1138996;-67
2022/08/25 16:23:27;;;;;;;22.22;7.45;;;;;;;30.82;69.39;100788.50;5148864;56;1139163;-66
2022/08/25 16:28:32;;;;;;;31.70;6.37;;;;;;;30.74;69.74;100792.44;5142015;56;1138582;-68
2022/08/25 16:33:38;;;;;;;39.92;9.30;;;;;;;30.65;70.73;100789.83;5149100;57;1138944;-65
2022/08/25 16:38:47;;;;;;;34.50;8.18;;;;;;;30.65;70.73;100789.83;5148943;57;1139057;-66
2022/08/25 16:43:54;;;;;;;37.55;6.00;;;;;;;30.56;70.37;100788.00;5152503;56;1139016;-65
2022/08/25 16:49:05;;;;;;;31.65;6.33;;;;;;;30.53;70.57;100784.39;5150061;56;1139215;-63
2022/08/25 16:59:35;;;;;;;52.27;6.47;;;;;;;30.34;70.87;100793.30;5186225;56;1141184;-65
2022/08/25 17:04:41;;;;;;;36.58;6.12;;;;;;;30.32;71.05;100790.52;5194354;56;1140997;-64
2022/08/25 17:09:47;;;;;;;38.48;8.03;;;;;;;30.26;71.35;100782.75;5176052;56;1141018;-64
2022/08/25 17:14:53;;;;;;;49.08;9.08;;;;;;;30.20;71.64;100785.63;5235465;56;1141047;-63
2022/08/25 17:19:59;;;;;;;44.55;7.85;;;;;;;30.10;71.94;100778.61;5212843;56;1141025;-65
2022/08/25 17:25:06;;;;;;;41.18;6.28;;;;;;;29.97;72.25;100776.95;5188532;56;1141263;-64
2022/08/25 17:30:12;;;;;;;56.68;7.78;;;;;;;29.78;72.65;100780.89;5150270;56;1141111;-64
2022/08/25 17:35:18;;;;;;;67.47;8.15;;;;;;;29.68;72.82;100778.74;5224887;56;1141047;-66
2022/08/25 17:40:24;;;;;;;50.98;6.97;;;;;;;29.59;73.02;100781.02;5156541;56;1141125;-63
2022/08/25 17:45:30;;;;;;;50.05;7.12;;;;;;;29.49;73.15;100785.38;5162914;56;1141070;-68
2022/08/25 17:50:37;;;;;;;38.55;5.87;;;;;;;29.35;73.38;100779.30;5247078;56;21179;-66
2022/08/25 17:55:43;;;;;;;32.48;6.50;;;;;;;29.23;73.54;100784.75;5186564;56;21501;-68
2022/08/25 18:00:49;;;;;;;37.20;6.10;;;;;;;29.06;73.68;100791.94;5207087;56;21182;-66
2022/08/25 18:05:57;;;;;;;68.28;10.18;;;;;;;28.93;74.26;100797.59;5213204;56;21652;-68
2022/08/25 18:11:04;;;;;;;32.08;6.05;;;;;;;28.84;74.92;100791.66;5182280;57;21204;-67
2022/08/25 18:16:12;;;;;;;40.83;6.72;;;;;;;28.70;75.01;100799.70;5204174;56;21162;-67
2022/08/25 18:21:19;;;;;;;39.73;6.90;;;;;;;28.52;75.32;100801.09;5189091;56;21682;-67
2022/08/25 18:26:25;;;;;;;43.40;7.08;;;;;;;28.46;75.74;100802.83;5237717;56;21108;-67
2022/08/25 18:31:31;;;;;;;33.88;5.83;;;;;;;28.33;76.00;100801.12;5179997;56;21145;-68
2022/08/25 18:36:37;;;;;;;22.95;5.35;;;;;;;28.22;76.12;100799.70;5207610;56;1136837;-66
2022/08/25 18:41:43;;;;;;;38.35;5.85;;;;;;;28.06;76.25;100795.67;5198607;56;1141103;-68
2022/08/25 18:46:50;;;;;;;36.15;6.10;;;;;;;27.99;76.65;100795.73;5227102;56;1141207;-66
2022/08/25 18:51:56;;;;;;;31.48;5.70;;;;;;;27.95;76.76;100796.44;5196087;56;1141024;-67
2022/08/25 18:57:01;;;;;;;31.70;5.35;;;;;;;27.81;76.84;100804.41;5172995;56;1141018;-66
2022/08/25 19:02:09;;;;;;;30.10;6.00;;;;;;;27.63;77.16;100812.03;5185983;56;1141298;-65
2022/08/25 19:07:14;;;;;;;29.65;6.30;;;;;;;27.58;77.72;100811.86;5171089;56;1141143;-66
2022/08/25 19:12:21;;;;;;;33.55;9.83;;;;;;;27.50;77.65;100812.12;5173245;56;1141176;-68
2022/08/25 19:17:27;;;;;;;30.20;9.93;;;;;;;27.41;78.00;100813.44;5168869;56;1140987;-67
2022/08/25 19:22:33;;;;;;;48.38;8.38;;;;;;;27.36;78.29;100811.91;5032776;58;1141129;-68
2022/08/25 19:27:40;;;;;;;28.00;8.43;;;;;;;27.31;78.38;100810.71;5100344;57;1141285;-65
2022/08/25 19:32:48;;;;;;;33.50;7.87;;;;;;;27.00;79.22;100798.52;5038480;58;1141112;-67
2022/08/25 19:37:55;;;;;;;40.80;8.08;;;;;;;27.00;79.22;100798.52;5065181;58;1139233;-68
2022/08/25 19:43:01;;;;;;;40.28;6.67;;;;;;;27.11;79.26;100808.66;5077412;57;1139006;-69
2022/08/25 19:48:08;;;;;;;37.65;6.47;;;;;;;27.13;79.27;100801.66;5114146;57;1139089;-67
2022/08/25 19:53:14;;;;;;;33.90;6.55;;;;;;;27.16;79.60;100804.77;5083903;57;1139135;-65
2022/08/25 19:58:19;;;;;;;39.90;7.28;;;;;;;27.23;79.79;100808.25;5120466;57;1138955;-67
2022/08/25 20:03:25;;;;;;;41.73;6.55;;;;;;;27.15;79.46;100811.25;5125223;57;1139031;-67
2022/08/25 20:08:31;;;;;;;29.42;6.90;;;;;;;27.08;79.86;100807.73;5096400;57;1139243;-68
2022/08/25 20:13:36;;;;;;;25.55;5.90;;;;;;;26.98;79.43;100808.77;5091019;57;1138973;-66
2022/08/25 20:18:42;;;;;;;34.35;6.58;;;;;;;26.73;79.43;100814.64;5081701;57;1139035;-68
2022/08/25 20:29:11;;;;;;;41.73;8.08;;;;;;;26.43;80.53;100813.83;5206237;56;1139039;-67
2022/08/25 20:34:17;;;;;;;27.82;8.13;;;;;;;26.36;80.86;100824.41;5160998;56;1138916;-69
2022/08/25 20:39:24;;;;;;;32.58;8.30;;;;;;;26.25;81.16;100812.33;5187491;56;1139276;-67
2022/08/25 20:44:32;;;;;;;36.63;7.60;;;;;;;26.17;81.69;100815.27;5165911;56;1138957;-69
2022/08/25 20:49:47;;;;;;;47.35;8.68;;;;;;;26.13;82.33;100818.08;5162789;56;1136702;-68
2022/08/25 20:54:49;;;;;;;30.52;7.20;;;;;;;26.13;82.64;100823.50;5178751;56;1140907;-69
2022/08/25 20:59:57;;;;;;;26.20;6.33;;;;;;;26.11;82.99;100819.68;5253493;55;1141022;-65
2022/08/25 21:05:04;;;;;;;40.83;7.27;;;;;;;26.02;82.95;100811.45;5146546;56;1140990;-67
2022/08/25 21:10:12;;;;;;;38.83;7.70;;;;;;;25.95;83.26;100817.43;5125932;56;1141061;-65
2022/08/25 21:15:18;;;;;;;27.62;6.97;;;;;;;25.89;83.51;100808.26;5134610;56;1141138;-68
2022/08/25 21:20:25;;;;;;;33.48;8.05;;;;;;;25.84;83.85;100800.44;5128016;56;1140993;-67
2022/08/25 21:25:32;;;;;;;39.42;7.92;;;;;;;25.69;84.00;100804.74;5176551;56;1141119;-65
2022/08/25 21:30:42;;;;;;;32.63;8.23;;;;;;;25.52;84.71;100811.08;5160292;56;1141055;-67
2022/08/25 21:35:49;;;;;;;30.97;7.12;;;;;;;25.43;85.40;100816.41;5165652;56;1141333;-67
2022/08/25 21:40:58;;;;;;;30.17;8.13;;;;;;;25.43;85.93;100815.06;5170654;56;1141309;-66
2022/08/25 21:46:04;;;;;;;32.83;7.58;;;;;;;25.40;86.04;100817.34;5162759;56;1141155;-68
2022/08/25 21:51:18;;;;;;;23.32;7.47;;;;;;;25.31;86.45;100815.38;5164755;56;1141099;-65
2022/08/25 21:56:24;;;;;;;26.45;6.97;;;;;;;25.19;87.13;100812.98;5184186;56;1141359;-67
2022/08/25 22:01:30;;;;;;;39.35;9.18;;;;;;;25.10;87.90;100813.69;5164080;56;1141016;-66
2022/08/25 22:06:36;;;;;;;36.75;8.70;;;;;;;25.04;88.44;100806.94;5142610;56;1141429;-65
2022/08/25 22:11:44;;;;;;;22.73;7.00;;;;;;;25.05;89.13;100808.60;5211037;56;1141394;-69
2022/08/25 22:16:50;;;;;;;37.95;7.95;;;;;;;25.01;89.40;100813.59;5192942;56;1141264;-68
2022/08/25 22:21:57;;;;;;;33.95;8.43;;;;;;;25.00;89.61;100805.15;5160394;56;1141038;-68
2022/08/25 22:27:04;;;;;;;32.33;7.85;;;;;;;24.97;89.86;100804.20;5117662;56;1141181;-66
2022/08/25 22:32:10;;;;;;;27.95;6.92;;;;;;;24.94;90.09;100791.08;5110013;57;1141192;-66
2022/08/25 22:37:16;;;;;;;31.17;8.50;;;;;;;24.88;90.57;100794.08;5143882;57;1141328;-66
2022/08/25 22:42:23;;;;;;;34.53;7.92;;;;;;;24.77;91.04;100794.66;5121680;57;1141013;-66
2022/08/25 22:47:30;;;;;;;44.65;8.70;;;;;;;24.73;91.49;100787.17;5058449;58;1141191;-66
2022/08/25 22:52:35;;;;;;;25.30;7.47;;;;;;;24.65;91.91;100780.07;5057838;58;1141103;-66
2022/08/25 22:57:42;;;;;;;38.17;8.65;;;;;;;24.62;92.85;100789.11;5059107;58;1141160;-69
2022/08/25 23:02:51;;;;;;;28.92;8.00;;;;;;;24.56;93.35;100781.31;5058143;58;1141003;-65
2022/08/25 23:07:55;;;;;;;25.37;8.55;;;;;;;24.51;93.61;100780.56;5058947;57;1141082;-67
2022/08/25 23:13:01;;;;;;;24.82;8.43;;;;;;;24.46;93.82;100775.43;5060885;57;1141250;-67
2022/08/25 23:18:07;;;;;;;24.35;8.40;;;;;;;24.39;94.01;100766.48;5120380;57;1141587;-65
2022/08/25 23:23:14;;;;;;;26.17;8.95;;;;;;;24.31;94.39;100759.37;5100996;57;1141024;-68